Aviation Digital Data Service (ADDS)

Output produced by METARs form (1212 UTC 24 March 2017)
found at http://www.aviationweather.gov/adds/metars/
 
METAR text: KFAM 241056Z AUTO 18013KT 10SM CLR 17/12 A3000 RMK AO2 SLP151 T01670117
Conditions at: KFAM (FARMINGTON , MO, US) observed 1056 UTC 24 March 2017
Temperature: 16.7°C (62°F)
Dewpoint: 11.7°C (53°F) [RH = 72%]
Pressure (altimeter): 30.00 inches Hg (1016.0 mb)
[Sea-level pressure: 1015.1 mb]
Winds: from the S (180 degrees) at 15 MPH (13 knots; 6.8 m/s)
Visibility: 10 or more miles (16+ km)
Ceiling: at least 12,000 feet AGL
Clouds: sky clear below 12,000 feet AGL
Weather: automated observation with no human augmentation;
there may or may not be significant weather present at this time